sensor_id;sensor_type;location;lat;lon;timestamp;temperature;humidity
2757;DHT22;1386;50.862;6.494;2024-01-15T00:00:13;0.90;99.90
2757;DHT22;1386;50.862;6.494;2024-01-15T00:02:40;0.80;99.90
2757;DHT22;1386;50.862;6.494;2024-01-15T00:05:07;0.90;99.90
2757;DHT22;1386;50.862;6.494;2024-01-15T00:07:35;0.90;99.90
2757;DHT22;1386;50.862;6.494;2024-01-15T00:10:03;0.80;99.90
2757;DHT22;1386;50.862;6.494;2024-01-15T00:12:29;0.90;99.90
2757;DHT22;1386;50.862;6.494;2024-01-15T00:14:58;0.80;99.90
2757;DHT22;1386;50.862;6.494;2024-01-15T00:17:25;0.80;99.90
2757;DHT22;1386;50.862;6.494;2024-01-15T00:19:55;0.80;99.90
2757;DHT22;1386;50.862;6.494;2024-01-15T00:22:25;0.80;99.90
2757;DHT22;1386;50.862;6.494;2024-01-15T00:24:52;0.80;99.90
2757;DHT22;1386;50.862;6.494;2024-01-15T00:27:18;0.80;99.90
2757;DHT22;1386;50.862;6.494;2024-01-15T00:29:48;0.80;99.90
2757;DHT22;1386;50.862;6.494;2024-01-15T00:32:17;0.80;99.90
2757;DHT22;1386;50.862;6.494;2024-01-15T00:34:45;0.90;99.90
2757;DHT22;1386;50.862;6.494;2024-01-15T00:37:11;0.90;99.90
2757;DHT22;1386;50.862;6.494;2024-01-15T00:39:38;0.80;99.90
2757;DHT22;1386;50.862;6.494;2024-01-15T00:42:05;0.90;99.90
2757;DHT22;1386;50.862;6.494;2024-01-15T00:44:32;0.90;99.90
2757;DHT22;1386;50.862;6.494;2024-01-15T00:46:59;0.90;99.90
2757;DHT22;1386;50.862;6.494;2024-01-15T00:49:28;0.80;99.90
2757;DHT22;1386;50.862;6.494;2024-01-15T00:51:55;0.90;99.90
2757;DHT22;1386;50.862;6.494;2024-01-15T00:54:22;0.90;99.90
2757;DHT22;1386;50.862;6.494;2024-01-15T00:56:49;0.90;99.90
2757;DHT22;1386;50.862;6.494;2024-01-15T00:59:16;0.90;99.90
2757;DHT22;1386;50.862;6.494;2024-01-15T01:01:43;0.90;99.90
2757;DHT22;1386;50.862;6.494;2024-01-15T01:04:11;0.90;99.90
2757;DHT22;1386;50.862;6.494;2024-01-15T01:06:39;0.90;99.90
2757;DHT22;1386;50.862;6.494;2024-01-15T01:09:06;0.90;99.90
2757;DHT22;1386;50.862;6.494;2024-01-15T01:11:33;0.90;99.90
2757;DHT22;1386;50.862;6.494;2024-01-15T01:14:00;0.90;99.90
2757;DHT22;1386;50.862;6.494;2024-01-15T01:16:27;0.90;99.90
2757;DHT22;1386;50.862;6.494;2024-01-15T01:18:54;0.90;99.90
2757;DHT22;1386;50.862;6.494;2024-01-15T01:21:21;0.90;99.90
2757;DHT22;1386;50.862;6.494;2024-01-15T01:23:49;0.90;99.90
2757;DHT22;1386;50.862;6.494;2024-01-15T01:26:19;1.00;99.90
2757;DHT22;1386;50.862;6.494;2024-01-15T01:28:46;1.00;99.90
2757;DHT22;1386;50.862;6.494;2024-01-15T01:31:13;1.00;99.90
2757;DHT22;1386;50.862;6.494;2024-01-15T01:33:42;1.00;99.90
2757;DHT22;1386;50.862;6.494;2024-01-15T01:36:09;1.00;99.90
2757;DHT22;1386;50.862;6.494;2024-01-15T01:38:36;1.00;99.90
2757;DHT22;1386;50.862;6.494;2024-01-15T01:41:04;1.00;99.90
2757;DHT22;1386;50.862;6.494;2024-01-15T01:43:31;1.00;99.90
2757;DHT22;1386;50.862;6.494;2024-01-15T01:46:00;1.00;99.90
2757;DHT22;1386;50.862;6.494;2024-01-15T01:48:28;1.00;99.90
2757;DHT22;1386;50.862;6.494;2024-01-15T01:50:58;1.00;99.90
2757;DHT22;1386;50.862;6.494;2024-01-15T01:53:27;1.00;99.90
2757;DHT22;1386;50.862;6.494;2024-01-15T01:55:56;1.00;99.90
2757;DHT22;1386;50.862;6.494;2024-01-15T01:58:25;1.00;99.90
2757;DHT22;1386;50.862;6.494;2024-01-15T02:00:53;1.00;99.90
2757;DHT22;1386;50.862;6.494;2024-01-15T02:03:20;1.00;99.90
2757;DHT22;1386;50.862;6.494;2024-01-15T02:05:49;1.00;99.90
2757;DHT22;1386;50.862;6.494;2024-01-15T02:08:15;1.10;99.90
2757;DHT22;1386;50.862;6.494;2024-01-15T02:10:42;1.00;99.90
2757;DHT22;1386;50.862;6.494;2024-01-15T02:13:09;1.00;99.90
2757;DHT22;1386;50.862;6.494;2024-01-15T02:15:38;1.00;99.90
2757;DHT22;1386;50.862;6.494;2024-01-15T02:18:06;1.00;99.90
2757;DHT22;1386;50.862;6.494;2024-01-15T02:20:33;1.00;99.90
2757;DHT22;1386;50.862;6.494;2024-01-15T02:23:07;1.00;99.90
2757;DHT22;1386;50.862;6.494;2024-01-15T02:25:35;0.90;99.90
2757;DHT22;1386;50.862;6.494;2024-01-15T02:28:03;1.00;99.90
2757;DHT22;1386;50.862;6.494;2024-01-15T02:30:31;1.00;99.90
2757;DHT22;1386;50.862;6.494;2024-01-15T02:32:58;1.00;99.90
2757;DHT22;1386;50.862;6.494;2024-01-15T02:35:25;0.90;99.90
2757;DHT22;1386;50.862;6.494;2024-01-15T02:37:52;0.90;99.90
2757;DHT22;1386;50.862;6.494;2024-01-15T02:40:20;1.00;99.90
2757;DHT22;1386;50.862;6.494;2024-01-15T02:42:47;0.90;99.90
2757;DHT22;1386;50.862;6.494;2024-01-15T02:45:14;1.00;99.90
2757;DHT22;1386;50.862;6.494;2024-01-15T02:47:41;0.90;99.90
2757;DHT22;1386;50.862;6.494;2024-01-15T02:50:08;0.90;99.90
2757;DHT22;1386;50.862;6.494;2024-01-15T02:52:35;0.90;99.90
2757;DHT22;1386;50.862;6.494;2024-01-15T02:55:02;0.90;99.90
2757;DHT22;1386;50.862;6.494;2024-01-15T02:57:30;0.90;99.90
2757;DHT22;1386;50.862;6.494;2024-01-15T02:59:57;0.90;99.90
2757;DHT22;1386;50.862;6.494;2024-01-15T03:02:24;0.90;99.90
2757;DHT22;1386;50.862;6.494;2024-01-15T03:04:51;0.90;99.90
2757;DHT22;1386;50.862;6.494;2024-01-15T03:07:18;0.90;99.90
2757;DHT22;1386;50.862;6.494;2024-01-15T03:09:44;0.90;99.90
2757;DHT22;1386;50.862;6.494;2024-01-15T03:12:11;1.00;99.90
2757;DHT22;1386;50.862;6.494;2024-01-15T03:14:39;0.90;99.90
2757;DHT22;1386;50.862;6.494;2024-01-15T03:17:06;1.00;99.90
2757;DHT22;1386;50.862;6.494;2024-01-15T03:19:34;1.00;99.90
2757;DHT22;1386;50.862;6.494;2024-01-15T03:22:01;1.00;99.90
2757;DHT22;1386;50.862;6.494;2024-01-15T03:24:29;1.00;99.90
2757;DHT22;1386;50.862;6.494;2024-01-15T03:26:56;1.00;99.90
2757;DHT22;1386;50.862;6.494;2024-01-15T03:29:23;1.10;99.90
2757;DHT22;1386;50.862;6.494;2024-01-15T03:31:51;1.00;99.90
2757;DHT22;1386;50.862;6.494;2024-01-15T03:34:18;1.00;99.90
2757;DHT22;1386;50.862;6.494;2024-01-15T03:36:45;1.00;99.90
2757;DHT22;1386;50.862;6.494;2024-01-15T03:39:12;1.00;99.90
2757;DHT22;1386;50.862;6.494;2024-01-15T03:41:39;1.10;99.90
2757;DHT22;1386;50.862;6.494;2024-01-15T03:44:05;1.10;99.90
2757;DHT22;1386;50.862;6.494;2024-01-15T03:46:32;1.00;99.90
2757;DHT22;1386;50.862;6.494;2024-01-15T03:49:00;1.10;99.90
2757;DHT22;1386;50.862;6.494;2024-01-15T03:51:27;1.10;99.90
2757;DHT22;1386;50.862;6.494;2024-01-15T03:53:54;1.10;99.90
2757;DHT22;1386;50.862;6.494;2024-01-15T03:56:21;1.10;99.90
2757;DHT22;1386;50.862;6.494;2024-01-15T03:58:48;1.20;99.90
2757;DHT22;1386;50.862;6.494;2024-01-15T04:01:15;1.20;99.90
2757;DHT22;1386;50.862;6.494;2024-01-15T04:03:41;1.10;99.90
2757;DHT22;1386;50.862;6.494;2024-01-15T04:06:10;1.10;99.90
2757;DHT22;1386;50.862;6.494;2024-01-15T04:08:39;1.10;99.90
2757;DHT22;1386;50.862;6.494;2024-01-15T04:11:06;1.10;99.90
2757;DHT22;1386;50.862;6.494;2024-01-15T04:13:33;1.10;99.90
2757;DHT22;1386;50.862;6.494;2024-01-15T04:16:00;1.10;99.90
2757;DHT22;1386;50.862;6.494;2024-01-15T04:18:27;1.10;99.90
2757;DHT22;1386;50.862;6.494;2024-01-15T04:20:54;1.20;99.90
2757;DHT22;1386;50.862;6.494;2024-01-15T04:23:22;1.20;99.90
2757;DHT22;1386;50.862;6.494;2024-01-15T04:25:49;1.20;99.90
2757;DHT22;1386;50.862;6.494;2024-01-15T04:28:16;1.20;99.90
2757;DHT22;1386;50.862;6.494;2024-01-15T04:30:42;1.20;99.90
2757;DHT22;1386;50.862;6.494;2024-01-15T04:33:09;1.20;99.90
2757;DHT22;1386;50.862;6.494;2024-01-15T04:35:37;1.30;99.90
2757;DHT22;1386;50.862;6.494;2024-01-15T04:38:04;1.30;99.90
2757;DHT22;1386;50.862;6.494;2024-01-15T04:40:32;1.30;99.90
2757;DHT22;1386;50.862;6.494;2024-01-15T04:42:59;1.30;99.90
2757;DHT22;1386;50.862;6.494;2024-01-15T04:45:26;1.30;99.90
2757;DHT22;1386;50.862;6.494;2024-01-15T04:47:54;1.30;99.90
2757;DHT22;1386;50.862;6.494;2024-01-15T04:50:22;1.20;99.90
2757;DHT22;1386;50.862;6.494;2024-01-15T04:52:49;1.30;99.90
2757;DHT22;1386;50.862;6.494;2024-01-15T04:55:16;1.20;99.90
2757;DHT22;1386;50.862;6.494;2024-01-15T04:57:44;1.30;99.90
2757;DHT22;1386;50.862;6.494;2024-01-15T05:00:12;1.30;99.90
2757;DHT22;1386;50.862;6.494;2024-01-15T05:02:40;1.30;99.90
2757;DHT22;1386;50.862;6.494;2024-01-15T05:05:07;1.30;99.90
2757;DHT22;1386;50.862;6.494;2024-01-15T05:07:33;1.20;99.90
2757;DHT22;1386;50.862;6.494;2024-01-15T05:10:00;1.20;99.90
2757;DHT22;1386;50.862;6.494;2024-01-15T05:12:28;1.30;99.90
2757;DHT22;1386;50.862;6.494;2024-01-15T05:14:56;1.30;99.90
2757;DHT22;1386;50.862;6.494;2024-01-15T05:17:23;1.30;99.90
2757;DHT22;1386;50.862;6.494;2024-01-15T05:19:49;1.30;99.90
2757;DHT22;1386;50.862;6.494;2024-01-15T05:22:16;1.30;99.90
2757;DHT22;1386;50.862;6.494;2024-01-15T05:24:43;1.30;99.90
2757;DHT22;1386;50.862;6.494;2024-01-15T05:27:10;1.30;99.90
2757;DHT22;1386;50.862;6.494;2024-01-15T05:29:37;1.20;99.90
2757;DHT22;1386;50.862;6.494;2024-01-15T05:32:05;1.20;99.90
2757;DHT22;1386;50.862;6.494;2024-01-15T05:34:32;1.30;99.90
2757;DHT22;1386;50.862;6.494;2024-01-15T05:36:59;1.20;99.90
2757;DHT22;1386;50.862;6.494;2024-01-15T05:39:25;1.20;99.90
2757;DHT22;1386;50.862;6.494;2024-01-15T05:41:52;1.30;99.90
2757;DHT22;1386;50.862;6.494;2024-01-15T05:44:19;1.30;99.90
2757;DHT22;1386;50.862;6.494;2024-01-15T05:46:46;1.30;99.90
2757;DHT22;1386;50.862;6.494;2024-01-15T05:49:14;1.30;99.90
2757;DHT22;1386;50.862;6.494;2024-01-15T05:51:41;1.30;99.90
2757;DHT22;1386;50.862;6.494;2024-01-15T05:54:08;1.30;99.90
2757;DHT22;1386;50.862;6.494;2024-01-15T05:56:35;1.30;99.90
2757;DHT22;1386;50.862;6.494;2024-01-15T05:59:01;1.40;99.90
2757;DHT22;1386;50.862;6.494;2024-01-15T06:01:28;1.40;99.90
2757;DHT22;1386;50.862;6.494;2024-01-15T06:03:55;1.40;99.90
2757;DHT22;1386;50.862;6.494;2024-01-15T06:06:23;1.40;99.90
2757;DHT22;1386;50.862;6.494;2024-01-15T06:08:50;1.30;99.90
2757;DHT22;1386;50.862;6.494;2024-01-15T06:11:17;1.30;99.90
2757;DHT22;1386;50.862;6.494;2024-01-15T06:13:44;1.30;99.90
2757;DHT22;1386;50.862;6.494;2024-01-15T06:16:15;1.30;99.90
2757;DHT22;1386;50.862;6.494;2024-01-15T06:18:42;1.20;99.90
2757;DHT22;1386;50.862;6.494;2024-01-15T06:21:08;1.20;99.90
2757;DHT22;1386;50.862;6.494;2024-01-15T06:23:37;1.20;99.90
2757;DHT22;1386;50.862;6.494;2024-01-15T06:26:04;1.20;99.90
2757;DHT22;1386;50.862;6.494;2024-01-15T06:28:31;1.20;99.90
2757;DHT22;1386;50.862;6.494;2024-01-15T06:30:58;1.20;99.90
2757;DHT22;1386;50.862;6.494;2024-01-15T06:33:25;1.20;99.90
2757;DHT22;1386;50.862;6.494;2024-01-15T06:35:52;1.20;99.90
2757;DHT22;1386;50.862;6.494;2024-01-15T06:38:19;1.20;99.90
2757;DHT22;1386;50.862;6.494;2024-01-15T06:40:47;1.20;99.90
2757;DHT22;1386;50.862;6.494;2024-01-15T06:43:14;1.20;99.90
2757;DHT22;1386;50.862;6.494;2024-01-15T06:45:41;1.20;99.90
2757;DHT22;1386;50.862;6.494;2024-01-15T06:48:08;1.20;99.90
2757;DHT22;1386;50.862;6.494;2024-01-15T06:50:35;1.20;99.90
2757;DHT22;1386;50.862;6.494;2024-01-15T06:53:02;1.20;99.90
2757;DHT22;1386;50.862;6.494;2024-01-15T06:55:28;1.20;99.90
2757;DHT22;1386;50.862;6.494;2024-01-15T06:57:57;1.20;99.90
2757;DHT22;1386;50.862;6.494;2024-01-15T07:00:23;1.30;99.90
2757;DHT22;1386;50.862;6.494;2024-01-15T07:02:50;1.30;99.90
2757;DHT22;1386;50.862;6.494;2024-01-15T07:05:17;1.30;99.90
2757;DHT22;1386;50.862;6.494;2024-01-15T07:07:44;1.30;99.90
2757;DHT22;1386;50.862;6.494;2024-01-15T07:10:11;1.30;99.90
2757;DHT22;1386;50.862;6.494;2024-01-15T07:12:38;1.40;99.90
2757;DHT22;1386;50.862;6.494;2024-01-15T07:15:07;1.30;99.90
2757;DHT22;1386;50.862;6.494;2024-01-15T07:17:33;1.30;99.90
2757;DHT22;1386;50.862;6.494;2024-01-15T07:20:00;1.30;99.90
2757;DHT22;1386;50.862;6.494;2024-01-15T07:22:27;1.40;99.90
2757;DHT22;1386;50.862;6.494;2024-01-15T07:24:55;1.30;99.90
2757;DHT22;1386;50.862;6.494;2024-01-15T07:27:22;1.30;99.90
2757;DHT22;1386;50.862;6.494;2024-01-15T07:29:49;1.40;99.90
2757;DHT22;1386;50.862;6.494;2024-01-15T07:32:17;1.40;99.90
2757;DHT22;1386;50.862;6.494;2024-01-15T07:34:44;1.40;99.90
2757;DHT22;1386;50.862;6.494;2024-01-15T07:37:10;1.40;99.90
2757;DHT22;1386;50.862;6.494;2024-01-15T07:39:37;1.40;99.90
2757;DHT22;1386;50.862;6.494;2024-01-15T07:42:05;1.40;99.90
2757;DHT22;1386;50.862;6.494;2024-01-15T07:44:32;1.50;99.90
2757;DHT22;1386;50.862;6.494;2024-01-15T07:46:59;1.40;99.90
2757;DHT22;1386;50.862;6.494;2024-01-15T07:49:27;1.50;99.90
2757;DHT22;1386;50.862;6.494;2024-01-15T07:51:54;1.50;99.90
2757;DHT22;1386;50.862;6.494;2024-01-15T07:54:21;1.50;99.90
2757;DHT22;1386;50.862;6.494;2024-01-15T07:56:55;1.50;99.90
2757;DHT22;1386;50.862;6.494;2024-01-15T07:59:22;1.50;99.90
2757;DHT22;1386;50.862;6.494;2024-01-15T08:01:49;1.50;99.90
2757;DHT22;1386;50.862;6.494;2024-01-15T08:04:16;1.50;99.90
2757;DHT22;1386;50.862;6.494;2024-01-15T08:06:44;1.50;99.90
2757;DHT22;1386;50.862;6.494;2024-01-15T08:09:12;1.50;99.90
2757;DHT22;1386;50.862;6.494;2024-01-15T08:11:39;1.50;99.90
2757;DHT22;1386;50.862;6.494;2024-01-15T08:14:07;1.60;99.90
2757;DHT22;1386;50.862;6.494;2024-01-15T08:16:35;1.60;99.90
2757;DHT22;1386;50.862;6.494;2024-01-15T08:19:01;1.60;99.90
2757;DHT22;1386;50.862;6.494;2024-01-15T08:21:28;1.60;99.90
2757;DHT22;1386;50.862;6.494;2024-01-15T08:23:59;1.60;99.90
2757;DHT22;1386;50.862;6.494;2024-01-15T08:26:26;1.60;99.90
2757;DHT22;1386;50.862;6.494;2024-01-15T08:28:53;2.10;99.90
2757;DHT22;1386;50.862;6.494;2024-01-15T08:31:20;2.70;99.90
2757;DHT22;1386;50.862;6.494;2024-01-15T08:33:47;2.60;99.90
2757;DHT22;1386;50.862;6.494;2024-01-15T08:36:14;2.40;99.90
2757;DHT22;1386;50.862;6.494;2024-01-15T08:38:41;2.20;99.90
2757;DHT22;1386;50.862;6.494;2024-01-15T08:41:09;2.10;99.90
2757;DHT22;1386;50.862;6.494;2024-01-15T08:43:36;2.00;99.90
2757;DHT22;1386;50.862;6.494;2024-01-15T08:46:09;1.90;99.90
2757;DHT22;1386;50.862;6.494;2024-01-15T08:48:40;1.90;99.90
2757;DHT22;1386;50.862;6.494;2024-01-15T08:51:07;1.80;99.90
2757;DHT22;1386;50.862;6.494;2024-01-15T08:53:36;1.80;99.90
2757;DHT22;1386;50.862;6.494;2024-01-15T08:56:05;1.80;99.90
2757;DHT22;1386;50.862;6.494;2024-01-15T08:58:35;1.80;99.90
2757;DHT22;1386;50.862;6.494;2024-01-15T09:01:02;1.80;99.90
2757;DHT22;1386;50.862;6.494;2024-01-15T09:03:31;1.80;99.90
2757;DHT22;1386;50.862;6.494;2024-01-15T09:06:08;1.70;99.90
2757;DHT22;1386;50.862;6.494;2024-01-15T09:08:44;1.60;99.90
2757;DHT22;1386;50.862;6.494;2024-01-15T09:11:18;1.70;99.90
2757;DHT22;1386;50.862;6.494;2024-01-15T09:13:56;1.70;99.90
2757;DHT22;1386;50.862;6.494;2024-01-15T09:16:44;1.60;99.90
2757;DHT22;1386;50.862;6.494;2024-01-15T09:19:35;1.50;99.90
2757;DHT22;1386;50.862;6.494;2024-01-15T09:22:14;1.50;99.90
2757;DHT22;1386;50.862;6.494;2024-01-15T09:24:58;1.40;99.90
2757;DHT22;1386;50.862;6.494;2024-01-15T09:30:34;1.60;99.90
2757;DHT22;1386;50.862;6.494;2024-01-15T09:33:03;1.50;99.90
2757;DHT22;1386;50.862;6.494;2024-01-15T09:35:37;1.40;99.90
2757;DHT22;1386;50.862;6.494;2024-01-15T09:38:04;1.40;99.90
2757;DHT22;1386;50.862;6.494;2024-01-15T09:40:31;1.40;99.90
2757;DHT22;1386;50.862;6.494;2024-01-15T09:42:59;1.40;99.90
2757;DHT22;1386;50.862;6.494;2024-01-15T09:45:28;1.40;99.90
2757;DHT22;1386;50.862;6.494;2024-01-15T09:47:56;1.40;99.90
2757;DHT22;1386;50.862;6.494;2024-01-15T09:50:23;1.30;99.90
2757;DHT22;1386;50.862;6.494;2024-01-15T09:52:50;1.40;99.90
2757;DHT22;1386;50.862;6.494;2024-01-15T09:55:17;1.30;99.90
2757;DHT22;1386;50.862;6.494;2024-01-15T09:57:45;1.30;99.90
2757;DHT22;1386;50.862;6.494;2024-01-15T10:00:13;1.20;99.90
2757;DHT22;1386;50.862;6.494;2024-01-15T10:02:42;1.30;99.90
2757;DHT22;1386;50.862;6.494;2024-01-15T10:05:09;1.30;99.90
2757;DHT22;1386;50.862;6.494;2024-01-15T10:07:37;1.30;99.90
2757;DHT22;1386;50.862;6.494;2024-01-15T10:10:05;1.30;99.90
2757;DHT22;1386;50.862;6.494;2024-01-15T10:12:33;1.30;99.90
2757;DHT22;1386;50.862;6.494;2024-01-15T10:15:05;1.30;99.90
2757;DHT22;1386;50.862;6.494;2024-01-15T10:17:33;1.30;99.90
2757;DHT22;1386;50.862;6.494;2024-01-15T10:20:01;1.40;99.90
2757;DHT22;1386;50.862;6.494;2024-01-15T10:22:31;1.30;99.90
2757;DHT22;1386;50.862;6.494;2024-01-15T10:24:58;1.30;99.90
2757;DHT22;1386;50.862;6.494;2024-01-15T10:27:25;1.30;99.90
2757;DHT22;1386;50.862;6.494;2024-01-15T10:29:52;1.30;99.90
2757;DHT22;1386;50.862;6.494;2024-01-15T10:32:19;1.20;99.90
2757;DHT22;1386;50.862;6.494;2024-01-15T10:34:52;1.20;99.90
2757;DHT22;1386;50.862;6.494;2024-01-15T10:37:20;1.20;99.90
2757;DHT22;1386;50.862;6.494;2024-01-15T10:39:49;1.20;99.90
2757;DHT22;1386;50.862;6.494;2024-01-15T10:42:17;1.30;99.90
2757;DHT22;1386;50.862;6.494;2024-01-15T10:44:47;1.30;99.90
2757;DHT22;1386;50.862;6.494;2024-01-15T10:47:14;1.30;99.90
2757;DHT22;1386;50.862;6.494;2024-01-15T10:49:43;1.30;99.90
2757;DHT22;1386;50.862;6.494;2024-01-15T10:52:11;1.30;99.90
2757;DHT22;1386;50.862;6.494;2024-01-15T10:54:41;1.30;99.90
2757;DHT22;1386;50.862;6.494;2024-01-15T10:57:09;1.30;99.90
2757;DHT22;1386;50.862;6.494;2024-01-15T10:59:36;1.30;99.90
2757;DHT22;1386;50.862;6.494;2024-01-15T11:02:04;1.30;99.90
2757;DHT22;1386;50.862;6.494;2024-01-15T11:04:33;1.30;99.90
2757;DHT22;1386;50.862;6.494;2024-01-15T11:07:02;1.30;99.90
2757;DHT22;1386;50.862;6.494;2024-01-15T11:09:29;1.30;99.90
2757;DHT22;1386;50.862;6.494;2024-01-15T11:12:09;1.30;99.90
2757;DHT22;1386;50.862;6.494;2024-01-15T11:14:39;1.30;99.90
2757;DHT22;1386;50.862;6.494;2024-01-15T11:17:11;1.40;99.90
2757;DHT22;1386;50.862;6.494;2024-01-15T11:19:39;1.40;99.90
2757;DHT22;1386;50.862;6.494;2024-01-15T11:22:09;1.40;99.90
2757;DHT22;1386;50.862;6.494;2024-01-15T11:24:38;1.40;99.90
2757;DHT22;1386;50.862;6.494;2024-01-15T11:27:06;1.40;99.90
2757;DHT22;1386;50.862;6.494;2024-01-15T11:29:35;1.50;99.90
2757;DHT22;1386;50.862;6.494;2024-01-15T11:32:07;1.50;99.90
2757;DHT22;1386;50.862;6.494;2024-01-15T11:35:07;1.50;99.90
2757;DHT22;1386;50.862;6.494;2024-01-15T11:37:58;1.50;99.90
2757;DHT22;1386;50.862;6.494;2024-01-15T11:40:40;1.50;99.90
2757;DHT22;1386;50.862;6.494;2024-01-15T11:43:11;1.50;99.90
2757;DHT22;1386;50.862;6.494;2024-01-15T11:45:40;1.50;99.90
2757;DHT22;1386;50.862;6.494;2024-01-15T11:48:12;1.50;99.90
2757;DHT22;1386;50.862;6.494;2024-01-15T11:50:41;1.50;99.90
2757;DHT22;1386;50.862;6.494;2024-01-15T11:53:21;1.50;99.90
2757;DHT22;1386;50.862;6.494;2024-01-15T11:55:52;1.60;99.90
2757;DHT22;1386;50.862;6.494;2024-01-15T11:58:34;1.60;99.90
2757;DHT22;1386;50.862;6.494;2024-01-15T12:01:05;1.60;99.90
2757;DHT22;1386;50.862;6.494;2024-01-15T12:03:34;1.70;99.90
2757;DHT22;1386;50.862;6.494;2024-01-15T12:06:01;1.70;99.90
2757;DHT22;1386;50.862;6.494;2024-01-15T12:08:33;1.80;99.90
2757;DHT22;1386;50.862;6.494;2024-01-15T12:11:05;1.80;99.90
2757;DHT22;1386;50.862;6.494;2024-01-15T12:13:36;1.90;99.90
2757;DHT22;1386;50.862;6.494;2024-01-15T12:16:03;2.10;99.90
2757;DHT22;1386;50.862;6.494;2024-01-15T12:18:30;2.10;99.90
2757;DHT22;1386;50.862;6.494;2024-01-15T12:20:57;2.20;99.90
2757;DHT22;1386;50.862;6.494;2024-01-15T12:23:26;2.10;99.90
2757;DHT22;1386;50.862;6.494;2024-01-15T12:25:54;2.10;99.90
2757;DHT22;1386;50.862;6.494;2024-01-15T12:28:20;2.10;99.90
2757;DHT22;1386;50.862;6.494;2024-01-15T12:30:49;2.00;99.90
2757;DHT22;1386;50.862;6.494;2024-01-15T12:33:18;2.00;99.90
2757;DHT22;1386;50.862;6.494;2024-01-15T12:35:45;2.00;99.90
2757;DHT22;1386;50.862;6.494;2024-01-15T12:38:13;2.00;99.90
2757;DHT22;1386;50.862;6.494;2024-01-15T12:40:43;2.00;99.90
2757;DHT22;1386;50.862;6.494;2024-01-15T12:43:12;1.90;99.90
2757;DHT22;1386;50.862;6.494;2024-01-15T12:45:39;1.90;99.90
2757;DHT22;1386;50.862;6.494;2024-01-15T12:48:09;1.90;99.90
2757;DHT22;1386;50.862;6.494;2024-01-15T12:50:36;1.80;99.90
2757;DHT22;1386;50.862;6.494;2024-01-15T12:53:03;1.70;99.90
2757;DHT22;1386;50.862;6.494;2024-01-15T12:55:30;1.70;99.90
2757;DHT22;1386;50.862;6.494;2024-01-15T12:57:57;1.70;99.90
2757;DHT22;1386;50.862;6.494;2024-01-15T13:00:24;1.70;99.90
2757;DHT22;1386;50.862;6.494;2024-01-15T13:02:51;1.60;99.90
2757;DHT22;1386;50.862;6.494;2024-01-15T13:05:22;1.60;99.90
2757;DHT22;1386;50.862;6.494;2024-01-15T13:07:49;1.60;99.90
2757;DHT22;1386;50.862;6.494;2024-01-15T13:10:16;1.60;99.90
2757;DHT22;1386;50.862;6.494;2024-01-15T13:12:45;1.60;99.90
2757;DHT22;1386;50.862;6.494;2024-01-15T13:15:12;1.60;99.90
2757;DHT22;1386;50.862;6.494;2024-01-15T13:17:39;1.60;99.90
2757;DHT22;1386;50.862;6.494;2024-01-15T13:20:07;1.60;99.90
2757;DHT22;1386;50.862;6.494;2024-01-15T13:22:38;1.60;99.90
2757;DHT22;1386;50.862;6.494;2024-01-15T13:25:06;1.70;99.90
2757;DHT22;1386;50.862;6.494;2024-01-15T13:27:34;1.70;99.90
2757;DHT22;1386;50.862;6.494;2024-01-15T13:30:02;1.70;99.90
2757;DHT22;1386;50.862;6.494;2024-01-15T13:32:29;1.70;99.90
2757;DHT22;1386;50.862;6.494;2024-01-15T13:34:56;1.70;99.90
2757;DHT22;1386;50.862;6.494;2024-01-15T13:37:23;1.70;99.90
2757;DHT22;1386;50.862;6.494;2024-01-15T13:39:52;1.70;99.90
2757;DHT22;1386;50.862;6.494;2024-01-15T13:42:19;1.60;99.90
2757;DHT22;1386;50.862;6.494;2024-01-15T13:44:47;1.60;99.90
2757;DHT22;1386;50.862;6.494;2024-01-15T13:47:14;1.60;99.90
2757;DHT22;1386;50.862;6.494;2024-01-15T13:49:41;1.50;99.90
2757;DHT22;1386;50.862;6.494;2024-01-15T13:52:08;1.50;99.90
2757;DHT22;1386;50.862;6.494;2024-01-15T13:54:34;1.50;99.90
2757;DHT22;1386;50.862;6.494;2024-01-15T13:57:06;1.50;99.90
2757;DHT22;1386;50.862;6.494;2024-01-15T13:59:33;1.50;99.90
2757;DHT22;1386;50.862;6.494;2024-01-15T14:02:00;1.50;99.90
2757;DHT22;1386;50.862;6.494;2024-01-15T14:04:27;1.50;99.90
2757;DHT22;1386;50.862;6.494;2024-01-15T14:06:53;1.50;99.90
2757;DHT22;1386;50.862;6.494;2024-01-15T14:09:20;1.50;99.90
2757;DHT22;1386;50.862;6.494;2024-01-15T14:11:47;1.40;99.90
2757;DHT22;1386;50.862;6.494;2024-01-15T14:14:15;1.50;99.90
2757;DHT22;1386;50.862;6.494;2024-01-15T14:16:43;1.50;99.90
2757;DHT22;1386;50.862;6.494;2024-01-15T14:19:09;1.50;99.90
2757;DHT22;1386;50.862;6.494;2024-01-15T14:21:36;1.40;99.90
2757;DHT22;1386;50.862;6.494;2024-01-15T14:24:04;1.40;99.90
2757;DHT22;1386;50.862;6.494;2024-01-15T14:26:31;1.40;99.90
2757;DHT22;1386;50.862;6.494;2024-01-15T14:28:58;1.40;99.90
2757;DHT22;1386;50.862;6.494;2024-01-15T14:31:26;1.40;99.90
2757;DHT22;1386;50.862;6.494;2024-01-15T14:33:54;1.50;99.90
2757;DHT22;1386;50.862;6.494;2024-01-15T14:36:21;1.50;99.90
2757;DHT22;1386;50.862;6.494;2024-01-15T14:38:48;1.50;99.90
2757;DHT22;1386;50.862;6.494;2024-01-15T14:41:16;1.50;99.90
2757;DHT22;1386;50.862;6.494;2024-01-15T14:43:43;1.50;99.90
2757;DHT22;1386;50.862;6.494;2024-01-15T14:46:10;1.50;99.90
2757;DHT22;1386;50.862;6.494;2024-01-15T14:48:39;1.50;99.90
2757;DHT22;1386;50.862;6.494;2024-01-15T14:51:05;1.50;99.90
2757;DHT22;1386;50.862;6.494;2024-01-15T14:53:32;1.50;99.90
2757;DHT22;1386;50.862;6.494;2024-01-15T14:56:01;1.50;99.90
2757;DHT22;1386;50.862;6.494;2024-01-15T14:58:28;1.50;99.90
2757;DHT22;1386;50.862;6.494;2024-01-15T15:00:55;1.40;99.90
2757;DHT22;1386;50.862;6.494;2024-01-15T15:03:22;1.40;99.90
2757;DHT22;1386;50.862;6.494;2024-01-15T15:05:50;1.30;99.90
2757;DHT22;1386;50.862;6.494;2024-01-15T15:08:17;1.30;99.90
2757;DHT22;1386;50.862;6.494;2024-01-15T15:10:44;1.30;99.90
2757;DHT22;1386;50.862;6.494;2024-01-15T15:13:11;1.30;99.90
2757;DHT22;1386;50.862;6.494;2024-01-15T15:15:38;1.30;99.90
2757;DHT22;1386;50.862;6.494;2024-01-15T15:18:05;1.30;99.90
2757;DHT22;1386;50.862;6.494;2024-01-15T15:20:32;1.20;99.90
2757;DHT22;1386;50.862;6.494;2024-01-15T15:23:00;1.20;99.90
2757;DHT22;1386;50.862;6.494;2024-01-15T15:25:28;1.20;99.90
2757;DHT22;1386;50.862;6.494;2024-01-15T15:27:55;1.20;99.90
2757;DHT22;1386;50.862;6.494;2024-01-15T15:30:22;1.20;99.90
2757;DHT22;1386;50.862;6.494;2024-01-15T15:32:49;1.20;99.90
2757;DHT22;1386;50.862;6.494;2024-01-15T15:35:16;1.20;99.90
2757;DHT22;1386;50.862;6.494;2024-01-15T15:37:43;1.20;99.90
2757;DHT22;1386;50.862;6.494;2024-01-15T15:40:11;1.20;99.90
2757;DHT22;1386;50.862;6.494;2024-01-15T15:42:38;1.20;99.90
2757;DHT22;1386;50.862;6.494;2024-01-15T15:45:06;1.30;99.90
2757;DHT22;1386;50.862;6.494;2024-01-15T15:47:33;1.30;99.90
2757;DHT22;1386;50.862;6.494;2024-01-15T15:50:00;1.30;99.90
2757;DHT22;1386;50.862;6.494;2024-01-15T15:52:27;1.30;99.90
2757;DHT22;1386;50.862;6.494;2024-01-15T15:54:54;1.20;99.90
2757;DHT22;1386;50.862;6.494;2024-01-15T15:57:22;1.30;99.90
2757;DHT22;1386;50.862;6.494;2024-01-15T15:59:50;1.30;99.90
2757;DHT22;1386;50.862;6.494;2024-01-15T16:05:40;1.40;99.90
2757;DHT22;1386;50.862;6.494;2024-01-15T16:08:07;1.30;99.90
2757;DHT22;1386;50.862;6.494;2024-01-15T16:10:38;1.30;99.90
2757;DHT22;1386;50.862;6.494;2024-01-15T16:13:25;1.30;99.90
2757;DHT22;1386;50.862;6.494;2024-01-15T16:16:04;1.30;99.90
2757;DHT22;1386;50.862;6.494;2024-01-15T16:18:50;1.30;99.90
2757;DHT22;1386;50.862;6.494;2024-01-15T16:21:31;1.30;99.90
2757;DHT22;1386;50.862;6.494;2024-01-15T16:24:13;1.30;99.90
2757;DHT22;1386;50.862;6.494;2024-01-15T16:26:52;1.30;99.90
2757;DHT22;1386;50.862;6.494;2024-01-15T16:29:29;1.30;99.90